sensor_id;sensor_type;location;lat;lon;timestamp;temperature;humidity
10980;DHT22;5543;51.734;8.744;2023-08-31T00:01:16;12.30;99.90
10980;DHT22;5543;51.734;8.744;2023-08-31T00:03:45;12.40;99.90
10980;DHT22;5543;51.734;8.744;2023-08-31T00:06:13;12.40;99.90
10980;DHT22;5543;51.734;8.744;2023-08-31T00:08:41;12.50;99.90
10980;DHT22;5543;51.734;8.744;2023-08-31T00:11:10;12.50;99.90
10980;DHT22;5543;51.734;8.744;2023-08-31T00:13:39;12.50;99.90
10980;DHT22;5543;51.734;8.744;2023-08-31T00:16:07;12.50;99.90
10980;DHT22;5543;51.734;8.744;2023-08-31T00:18:37;12.40;99.90
10980;DHT22;5543;51.734;8.744;2023-08-31T00:21:05;12.40;99.90
10980;DHT22;5543;51.734;8.744;2023-08-31T00:23:37;12.30;99.90
10980;DHT22;5543;51.734;8.744;2023-08-31T00:26:05;12.30;99.90
10980;DHT22;5543;51.734;8.744;2023-08-31T00:28:35;12.30;99.90
10980;DHT22;5543;51.734;8.744;2023-08-31T00:31:03;12.30;99.90
10980;DHT22;5543;51.734;8.744;2023-08-31T00:33:32;12.40;99.90
10980;DHT22;5543;51.734;8.744;2023-08-31T00:36:00;12.20;99.90
10980;DHT22;5543;51.734;8.744;2023-08-31T00:38:30;12.10;99.90
10980;DHT22;5543;51.734;8.744;2023-08-31T00:40:58;12.10;99.90
10980;DHT22;5543;51.734;8.744;2023-08-31T00:43:26;12.10;99.90
10980;DHT22;5543;51.734;8.744;2023-08-31T00:45:57;12.00;99.90
10980;DHT22;5543;51.734;8.744;2023-08-31T00:48:26;12.00;99.90
10980;DHT22;5543;51.734;8.744;2023-08-31T00:50:54;12.00;99.90
10980;DHT22;5543;51.734;8.744;2023-08-31T00:53:22;12.00;99.90
10980;DHT22;5543;51.734;8.744;2023-08-31T00:55:52;11.90;99.90
10980;DHT22;5543;51.734;8.744;2023-08-31T00:58:20;11.90;99.90
10980;DHT22;5543;51.734;8.744;2023-08-31T01:00:58;11.90;99.90
10980;DHT22;5543;51.734;8.744;2023-08-31T01:03:37;11.80;99.90
10980;DHT22;5543;51.734;8.744;2023-08-31T01:06:12;11.80;99.90
10980;DHT22;5543;51.734;8.744;2023-08-31T01:08:49;11.80;99.90
10980;DHT22;5543;51.734;8.744;2023-08-31T01:11:24;11.80;99.90
10980;DHT22;5543;51.734;8.744;2023-08-31T01:14:01;11.70;99.90
10980;DHT22;5543;51.734;8.744;2023-08-31T01:16:33;11.80;99.90
10980;DHT22;5543;51.734;8.744;2023-08-31T01:19:05;11.70;99.90
10980;DHT22;5543;51.734;8.744;2023-08-31T01:21:37;11.70;99.90
10980;DHT22;5543;51.734;8.744;2023-08-31T01:24:09;11.70;99.90
10980;DHT22;5543;51.734;8.744;2023-08-31T01:26:40;11.70;99.90
10980;DHT22;5543;51.734;8.744;2023-08-31T01:29:09;11.80;99.90
10980;DHT22;5543;51.734;8.744;2023-08-31T01:31:42;11.60;99.90
10980;DHT22;5543;51.734;8.744;2023-08-31T01:34:09;11.60;99.90
10980;DHT22;5543;51.734;8.744;2023-08-31T01:36:42;11.50;99.90
10980;DHT22;5543;51.734;8.744;2023-08-31T01:39:15;11.50;99.90
10980;DHT22;5543;51.734;8.744;2023-08-31T01:41:50;11.50;99.90
10980;DHT22;5543;51.734;8.744;2023-08-31T01:44:19;12.30;99.90
10980;DHT22;5543;51.734;8.744;2023-08-31T01:46:52;11.90;99.90
10980;DHT22;5543;51.734;8.744;2023-08-31T01:49:21;11.60;99.90
10980;DHT22;5543;51.734;8.744;2023-08-31T01:51:49;11.60;99.90
10980;DHT22;5543;51.734;8.744;2023-08-31T01:54:18;11.60;99.90
10980;DHT22;5543;51.734;8.744;2023-08-31T01:56:46;11.80;99.90
10980;DHT22;5543;51.734;8.744;2023-08-31T01:59:14;11.80;99.90
10980;DHT22;5543;51.734;8.744;2023-08-31T02:01:42;12.40;99.90
10980;DHT22;5543;51.734;8.744;2023-08-31T02:04:11;11.80;99.90
10980;DHT22;5543;51.734;8.744;2023-08-31T02:06:39;11.80;99.90
10980;DHT22;5543;51.734;8.744;2023-08-31T02:09:07;11.80;99.90
10980;DHT22;5543;51.734;8.744;2023-08-31T02:11:36;11.80;99.90
10980;DHT22;5543;51.734;8.744;2023-08-31T02:14:05;11.80;99.90
10980;DHT22;5543;51.734;8.744;2023-08-31T02:16:34;11.90;99.90
10980;DHT22;5543;51.734;8.744;2023-08-31T02:19:02;11.80;99.90
10980;DHT22;5543;51.734;8.744;2023-08-31T02:21:30;11.80;99.90
10980;DHT22;5543;51.734;8.744;2023-08-31T02:23:58;11.70;99.90
10980;DHT22;5543;51.734;8.744;2023-08-31T02:26:26;11.90;99.90
10980;DHT22;5543;51.734;8.744;2023-08-31T02:28:56;11.80;99.90
10980;DHT22;5543;51.734;8.744;2023-08-31T02:31:24;12.40;99.90
10980;DHT22;5543;51.734;8.744;2023-08-31T02:33:52;11.90;99.90
10980;DHT22;5543;51.734;8.744;2023-08-31T02:36:20;11.80;99.90
10980;DHT22;5543;51.734;8.744;2023-08-31T02:38:48;11.80;99.90
10980;DHT22;5543;51.734;8.744;2023-08-31T02:41:17;11.80;99.90
10980;DHT22;5543;51.734;8.744;2023-08-31T02:43:45;11.80;99.90
10980;DHT22;5543;51.734;8.744;2023-08-31T02:46:14;11.80;99.90
10980;DHT22;5543;51.734;8.744;2023-08-31T02:48:43;11.80;99.90
10980;DHT22;5543;51.734;8.744;2023-08-31T02:51:11;12.40;99.90
10980;DHT22;5543;51.734;8.744;2023-08-31T02:53:40;12.20;99.90
10980;DHT22;5543;51.734;8.744;2023-08-31T02:56:08;12.00;99.90
10980;DHT22;5543;51.734;8.744;2023-08-31T02:58:36;12.00;99.90
10980;DHT22;5543;51.734;8.744;2023-08-31T03:01:07;11.90;99.90
10980;DHT22;5543;51.734;8.744;2023-08-31T03:03:40;12.00;99.90
10980;DHT22;5543;51.734;8.744;2023-08-31T03:06:08;12.10;99.90
10980;DHT22;5543;51.734;8.744;2023-08-31T03:08:37;12.10;99.90
10980;DHT22;5543;51.734;8.744;2023-08-31T03:11:06;12.10;99.90
10980;DHT22;5543;51.734;8.744;2023-08-31T03:13:34;12.10;99.90
10980;DHT22;5543;51.734;8.744;2023-08-31T03:16:02;12.10;99.90
10980;DHT22;5543;51.734;8.744;2023-08-31T03:18:30;12.20;99.90
10980;DHT22;5543;51.734;8.744;2023-08-31T03:21:00;12.30;99.90
10980;DHT22;5543;51.734;8.744;2023-08-31T03:23:29;12.20;99.90
10980;DHT22;5543;51.734;8.744;2023-08-31T03:25:57;12.20;99.90
10980;DHT22;5543;51.734;8.744;2023-08-31T03:28:25;12.10;99.90
10980;DHT22;5543;51.734;8.744;2023-08-31T03:30:57;12.20;99.90
10980;DHT22;5543;51.734;8.744;2023-08-31T03:33:25;12.10;99.90
10980;DHT22;5543;51.734;8.744;2023-08-31T03:35:54;12.10;99.90
10980;DHT22;5543;51.734;8.744;2023-08-31T03:38:28;12.20;99.90
10980;DHT22;5543;51.734;8.744;2023-08-31T03:40:56;12.20;99.90
10980;DHT22;5543;51.734;8.744;2023-08-31T03:43:24;12.00;99.90
10980;DHT22;5543;51.734;8.744;2023-08-31T03:45:55;12.00;99.90
10980;DHT22;5543;51.734;8.744;2023-08-31T03:48:24;12.00;99.90
10980;DHT22;5543;51.734;8.744;2023-08-31T03:50:52;12.00;99.90
10980;DHT22;5543;51.734;8.744;2023-08-31T03:53:21;11.90;99.90
10980;DHT22;5543;51.734;8.744;2023-08-31T03:55:50;12.00;99.90
10980;DHT22;5543;51.734;8.744;2023-08-31T03:58:18;11.90;99.90
10980;DHT22;5543;51.734;8.744;2023-08-31T04:00:49;11.80;99.90
10980;DHT22;5543;51.734;8.744;2023-08-31T04:03:17;11.80;99.90
10980;DHT22;5543;51.734;8.744;2023-08-31T04:05:45;11.80;99.90
10980;DHT22;5543;51.734;8.744;2023-08-31T04:08:13;11.80;99.90
10980;DHT22;5543;51.734;8.744;2023-08-31T04:10:41;11.80;99.90
10980;DHT22;5543;51.734;8.744;2023-08-31T04:13:11;11.70;99.90
10980;DHT22;5543;51.734;8.744;2023-08-31T04:15:39;11.70;99.90
10980;DHT22;5543;51.734;8.744;2023-08-31T04:18:07;11.60;99.90
10980;DHT22;5543;51.734;8.744;2023-08-31T04:20:35;11.60;99.90
10980;DHT22;5543;51.734;8.744;2023-08-31T04:23:04;11.50;99.90
10980;DHT22;5543;51.734;8.744;2023-08-31T04:25:32;11.50;99.90
10980;DHT22;5543;51.734;8.744;2023-08-31T04:28:00;11.40;99.90
10980;DHT22;5543;51.734;8.744;2023-08-31T04:30:30;11.40;99.90
10980;DHT22;5543;51.734;8.744;2023-08-31T04:32:58;11.60;99.90
10980;DHT22;5543;51.734;8.744;2023-08-31T04:35:26;11.40;99.90
10980;DHT22;5543;51.734;8.744;2023-08-31T04:37:54;11.60;99.90
10980;DHT22;5543;51.734;8.744;2023-08-31T04:40:23;11.50;99.90
10980;DHT22;5543;51.734;8.744;2023-08-31T04:42:51;11.60;99.90
10980;DHT22;5543;51.734;8.744;2023-08-31T04:45:19;11.60;99.90
10980;DHT22;5543;51.734;8.744;2023-08-31T04:47:48;11.70;99.90
10980;DHT22;5543;51.734;8.744;2023-08-31T04:50:18;11.70;99.90
10980;DHT22;5543;51.734;8.744;2023-08-31T04:52:46;11.70;99.90
10980;DHT22;5543;51.734;8.744;2023-08-31T04:55:14;11.80;99.90
10980;DHT22;5543;51.734;8.744;2023-08-31T04:57:43;11.80;99.90
10980;DHT22;5543;51.734;8.744;2023-08-31T05:00:11;11.80;99.90
10980;DHT22;5543;51.734;8.744;2023-08-31T05:02:40;11.80;99.90
10980;DHT22;5543;51.734;8.744;2023-08-31T05:05:09;11.90;99.90
10980;DHT22;5543;51.734;8.744;2023-08-31T05:07:37;12.20;99.90
10980;DHT22;5543;51.734;8.744;2023-08-31T05:10:07;11.90;99.90
10980;DHT22;5543;51.734;8.744;2023-08-31T05:12:35;11.90;99.90
10980;DHT22;5543;51.734;8.744;2023-08-31T05:15:04;12.10;99.90
10980;DHT22;5543;51.734;8.744;2023-08-31T05:17:33;12.00;99.90
10980;DHT22;5543;51.734;8.744;2023-08-31T05:20:01;12.00;99.90
10980;DHT22;5543;51.734;8.744;2023-08-31T05:22:33;12.00;99.90
10980;DHT22;5543;51.734;8.744;2023-08-31T05:25:01;12.00;99.90
10980;DHT22;5543;51.734;8.744;2023-08-31T05:27:31;12.00;99.90
10980;DHT22;5543;51.734;8.744;2023-08-31T05:29:59;12.80;99.90
10980;DHT22;5543;51.734;8.744;2023-08-31T05:32:28;12.00;99.90
10980;DHT22;5543;51.734;8.744;2023-08-31T05:34:56;12.10;99.90
10980;DHT22;5543;51.734;8.744;2023-08-31T05:37:25;12.00;99.90
10980;DHT22;5543;51.734;8.744;2023-08-31T05:39:54;12.00;99.90
10980;DHT22;5543;51.734;8.744;2023-08-31T05:42:23;12.00;99.90
10980;DHT22;5543;51.734;8.744;2023-08-31T05:44:51;12.00;99.90
10980;DHT22;5543;51.734;8.744;2023-08-31T05:47:19;11.90;99.90
10980;DHT22;5543;51.734;8.744;2023-08-31T05:49:47;11.90;99.90
10980;DHT22;5543;51.734;8.744;2023-08-31T05:52:15;12.00;99.90
10980;DHT22;5543;51.734;8.744;2023-08-31T05:54:43;12.00;99.90
10980;DHT22;5543;51.734;8.744;2023-08-31T05:57:13;12.00;99.90
10980;DHT22;5543;51.734;8.744;2023-08-31T05:59:41;12.00;99.90
10980;DHT22;5543;51.734;8.744;2023-08-31T06:02:09;12.10;99.90
10980;DHT22;5543;51.734;8.744;2023-08-31T06:04:37;12.10;99.90
10980;DHT22;5543;51.734;8.744;2023-08-31T06:07:05;12.20;99.90
10980;DHT22;5543;51.734;8.744;2023-08-31T06:09:34;12.20;99.90
10980;DHT22;5543;51.734;8.744;2023-08-31T06:12:02;12.20;99.90
10980;DHT22;5543;51.734;8.744;2023-08-31T06:14:32;12.30;99.90
10980;DHT22;5543;51.734;8.744;2023-08-31T06:17:00;12.40;99.90
10980;DHT22;5543;51.734;8.744;2023-08-31T06:19:29;12.40;99.90
10980;DHT22;5543;51.734;8.744;2023-08-31T06:21:57;12.40;99.90
10980;DHT22;5543;51.734;8.744;2023-08-31T06:24:25;12.50;99.90
10980;DHT22;5543;51.734;8.744;2023-08-31T06:26:53;12.50;99.90
10980;DHT22;5543;51.734;8.744;2023-08-31T06:29:23;12.50;99.90
10980;DHT22;5543;51.734;8.744;2023-08-31T06:31:52;12.70;99.90
10980;DHT22;5543;51.734;8.744;2023-08-31T06:34:21;12.80;99.90
10980;DHT22;5543;51.734;8.744;2023-08-31T06:36:49;12.90;99.90
10980;DHT22;5543;51.734;8.744;2023-08-31T06:39:17;13.10;99.90
10980;DHT22;5543;51.734;8.744;2023-08-31T06:41:45;13.30;99.90
10980;DHT22;5543;51.734;8.744;2023-08-31T06:44:14;13.50;99.90
10980;DHT22;5543;51.734;8.744;2023-08-31T06:46:42;13.60;99.90
10980;DHT22;5543;51.734;8.744;2023-08-31T06:49:11;13.60;99.90
10980;DHT22;5543;51.734;8.744;2023-08-31T06:51:39;13.50;99.90
10980;DHT22;5543;51.734;8.744;2023-08-31T06:54:07;13.40;99.90
10980;DHT22;5543;51.734;8.744;2023-08-31T06:56:36;13.30;99.90
10980;DHT22;5543;51.734;8.744;2023-08-31T06:59:04;13.20;99.90
10980;DHT22;5543;51.734;8.744;2023-08-31T07:01:32;13.10;99.90
10980;DHT22;5543;51.734;8.744;2023-08-31T07:04:00;13.00;99.90
10980;DHT22;5543;51.734;8.744;2023-08-31T07:06:34;12.80;99.90
10980;DHT22;5543;51.734;8.744;2023-08-31T07:09:03;12.80;99.90
10980;DHT22;5543;51.734;8.744;2023-08-31T07:11:32;12.70;99.90
10980;DHT22;5543;51.734;8.744;2023-08-31T07:14:00;12.80;99.90
10980;DHT22;5543;51.734;8.744;2023-08-31T07:16:28;12.80;99.90
10980;DHT22;5543;51.734;8.744;2023-08-31T07:18:56;13.00;99.90
10980;DHT22;5543;51.734;8.744;2023-08-31T07:21:24;13.10;99.90
10980;DHT22;5543;51.734;8.744;2023-08-31T07:23:54;13.20;99.90
10980;DHT22;5543;51.734;8.744;2023-08-31T07:26:22;13.40;99.90
10980;DHT22;5543;51.734;8.744;2023-08-31T07:28:50;13.60;99.90
10980;DHT22;5543;51.734;8.744;2023-08-31T07:31:18;13.90;99.90
10980;DHT22;5543;51.734;8.744;2023-08-31T07:33:47;13.90;99.90
10980;DHT22;5543;51.734;8.744;2023-08-31T07:36:15;14.00;99.90
10980;DHT22;5543;51.734;8.744;2023-08-31T07:38:43;14.20;99.90
10980;DHT22;5543;51.734;8.744;2023-08-31T07:41:12;14.30;99.90
10980;DHT22;5543;51.734;8.744;2023-08-31T07:43:40;14.40;99.90
10980;DHT22;5543;51.734;8.744;2023-08-31T07:46:20;14.60;99.90
10980;DHT22;5543;51.734;8.744;2023-08-31T07:48:48;15.00;99.90
10980;DHT22;5543;51.734;8.744;2023-08-31T07:51:17;14.90;99.90
10980;DHT22;5543;51.734;8.744;2023-08-31T07:53:49;15.20;99.90
10980;DHT22;5543;51.734;8.744;2023-08-31T07:56:19;15.30;99.90
10980;DHT22;5543;51.734;8.744;2023-08-31T07:58:47;15.50;99.90
10980;DHT22;5543;51.734;8.744;2023-08-31T08:01:15;15.70;99.90
10980;DHT22;5543;51.734;8.744;2023-08-31T08:03:44;15.70;99.90
10980;DHT22;5543;51.734;8.744;2023-08-31T08:06:12;16.00;99.90
10980;DHT22;5543;51.734;8.744;2023-08-31T08:08:40;16.10;99.90
10980;DHT22;5543;51.734;8.744;2023-08-31T08:11:10;16.40;99.90
10980;DHT22;5543;51.734;8.744;2023-08-31T08:13:39;16.60;99.90
10980;DHT22;5543;51.734;8.744;2023-08-31T08:16:07;16.60;99.90
10980;DHT22;5543;51.734;8.744;2023-08-31T08:18:36;16.40;99.90
10980;DHT22;5543;51.734;8.744;2023-08-31T08:21:04;16.10;99.90
10980;DHT22;5543;51.734;8.744;2023-08-31T08:23:32;15.70;99.90
10980;DHT22;5543;51.734;8.744;2023-08-31T08:26:00;15.40;99.90
10980;DHT22;5543;51.734;8.744;2023-08-31T08:28:28;15.10;99.90
10980;DHT22;5543;51.734;8.744;2023-08-31T08:31:00;14.90;99.90
10980;DHT22;5543;51.734;8.744;2023-08-31T08:33:30;14.70;99.90
10980;DHT22;5543;51.734;8.744;2023-08-31T08:35:58;14.50;99.90
10980;DHT22;5543;51.734;8.744;2023-08-31T08:38:26;14.50;99.90
10980;DHT22;5543;51.734;8.744;2023-08-31T08:40:54;14.50;99.90
10980;DHT22;5543;51.734;8.744;2023-08-31T08:43:24;14.70;99.90
10980;DHT22;5543;51.734;8.744;2023-08-31T08:45:54;14.80;99.90
10980;DHT22;5543;51.734;8.744;2023-08-31T08:48:23;16.00;99.90
10980;DHT22;5543;51.734;8.744;2023-08-31T08:50:53;17.20;99.90
10980;DHT22;5543;51.734;8.744;2023-08-31T08:53:23;18.70;99.90
10980;DHT22;5543;51.734;8.744;2023-08-31T08:55:51;20.00;99.90
10980;DHT22;5543;51.734;8.744;2023-08-31T08:58:19;20.80;99.90
10980;DHT22;5543;51.734;8.744;2023-08-31T09:00:47;22.00;99.90
10980;DHT22;5543;51.734;8.744;2023-08-31T09:03:15;22.90;99.90
10980;DHT22;5543;51.734;8.744;2023-08-31T09:05:45;23.90;99.90
10980;DHT22;5543;51.734;8.744;2023-08-31T09:08:14;24.60;99.90
10980;DHT22;5543;51.734;8.744;2023-08-31T09:10:43;25.30;99.90
10980;DHT22;5543;51.734;8.744;2023-08-31T09:13:12;25.60;99.90
10980;DHT22;5543;51.734;8.744;2023-08-31T09:15:44;25.60;98.80
10980;DHT22;5543;51.734;8.744;2023-08-31T09:18:16;25.40;98.20
10980;DHT22;5543;51.734;8.744;2023-08-31T09:20:47;24.60;97.50
10980;DHT22;5543;51.734;8.744;2023-08-31T09:23:15;23.60;99.30
10980;DHT22;5543;51.734;8.744;2023-08-31T09:25:43;22.60;99.60
10980;DHT22;5543;51.734;8.744;2023-08-31T09:28:12;21.60;99.90
10980;DHT22;5543;51.734;8.744;2023-08-31T09:30:41;20.60;99.90
10980;DHT22;5543;51.734;8.744;2023-08-31T09:33:21;19.30;99.90
10980;DHT22;5543;51.734;8.744;2023-08-31T09:35:53;18.40;99.90
10980;DHT22;5543;51.734;8.744;2023-08-31T09:38:21;17.60;99.90
10980;DHT22;5543;51.734;8.744;2023-08-31T09:40:50;16.90;99.90
10980;DHT22;5543;51.734;8.744;2023-08-31T09:43:23;16.50;99.90
10980;DHT22;5543;51.734;8.744;2023-08-31T09:45:52;16.10;99.90
10980;DHT22;5543;51.734;8.744;2023-08-31T09:48:22;15.90;99.90
10980;DHT22;5543;51.734;8.744;2023-08-31T09:50:52;15.70;99.90
10980;DHT22;5543;51.734;8.744;2023-08-31T09:53:24;15.70;99.90
10980;DHT22;5543;51.734;8.744;2023-08-31T09:55:56;15.90;99.90
10980;DHT22;5543;51.734;8.744;2023-08-31T09:58:25;16.00;99.90
10980;DHT22;5543;51.734;8.744;2023-08-31T10:00:53;16.20;99.90
10980;DHT22;5543;51.734;8.744;2023-08-31T10:03:21;16.40;99.90
10980;DHT22;5543;51.734;8.744;2023-08-31T10:05:51;16.80;99.90
10980;DHT22;5543;51.734;8.744;2023-08-31T10:08:19;17.50;99.90
10980;DHT22;5543;51.734;8.744;2023-08-31T10:10:47;17.90;99.90
10980;DHT22;5543;51.734;8.744;2023-08-31T10:13:16;18.00;99.90
10980;DHT22;5543;51.734;8.744;2023-08-31T10:15:45;18.10;99.90
10980;DHT22;5543;51.734;8.744;2023-08-31T10:18:14;18.20;99.90
10980;DHT22;5543;51.734;8.744;2023-08-31T10:20:43;18.70;99.90
10980;DHT22;5543;51.734;8.744;2023-08-31T10:23:14;19.20;99.90
10980;DHT22;5543;51.734;8.744;2023-08-31T10:26:02;19.80;99.90
10980;DHT22;5543;51.734;8.744;2023-08-31T10:28:41;20.10;99.90
10980;DHT22;5543;51.734;8.744;2023-08-31T10:31:10;20.20;99.90
10980;DHT22;5543;51.734;8.744;2023-08-31T10:33:44;19.90;99.90
10980;DHT22;5543;51.734;8.744;2023-08-31T10:36:14;19.80;99.90
10980;DHT22;5543;51.734;8.744;2023-08-31T10:38:45;19.80;99.90
10980;DHT22;5543;51.734;8.744;2023-08-31T10:41:21;19.80;99.90
10980;DHT22;5543;51.734;8.744;2023-08-31T10:43:51;19.90;99.90
10980;DHT22;5543;51.734;8.744;2023-08-31T10:46:30;19.90;99.90
10980;DHT22;5543;51.734;8.744;2023-08-31T10:49:00;19.60;99.90
10980;DHT22;5543;51.734;8.744;2023-08-31T10:51:30;19.20;99.90
10980;DHT22;5543;51.734;8.744;2023-08-31T10:54:08;18.80;99.90
10980;DHT22;5543;51.734;8.744;2023-08-31T10:56:54;18.20;99.90
10980;DHT22;5543;51.734;8.744;2023-08-31T10:59:24;17.80;99.90
10980;DHT22;5543;51.734;8.744;2023-08-31T11:01:56;17.60;99.90
10980;DHT22;5543;51.734;8.744;2023-08-31T11:04:26;17.30;99.90
10980;DHT22;5543;51.734;8.744;2023-08-31T11:07:14;17.60;99.90
10980;DHT22;5543;51.734;8.744;2023-08-31T11:09:45;17.90;99.90
10980;DHT22;5543;51.734;8.744;2023-08-31T11:12:13;18.30;99.90
10980;DHT22;5543;51.734;8.744;2023-08-31T11:14:42;18.60;99.90
10980;DHT22;5543;51.734;8.744;2023-08-31T11:17:10;18.90;99.90
10980;DHT22;5543;51.734;8.744;2023-08-31T11:19:38;19.00;99.90
10980;DHT22;5543;51.734;8.744;2023-08-31T11:22:06;19.00;99.90
10980;DHT22;5543;51.734;8.744;2023-08-31T11:24:37;19.00;99.90
10980;DHT22;5543;51.734;8.744;2023-08-31T11:27:09;19.00;99.90
10980;DHT22;5543;51.734;8.744;2023-08-31T11:29:38;18.80;99.90
10980;DHT22;5543;51.734;8.744;2023-08-31T11:32:07;18.50;99.90
10980;DHT22;5543;51.734;8.744;2023-08-31T11:34:35;18.20;99.90
10980;DHT22;5543;51.734;8.744;2023-08-31T11:37:04;17.70;99.90
10980;DHT22;5543;51.734;8.744;2023-08-31T11:39:32;17.40;99.90
10980;DHT22;5543;51.734;8.744;2023-08-31T11:42:00;16.90;99.90
10980;DHT22;5543;51.734;8.744;2023-08-31T11:44:31;16.40;99.90
10980;DHT22;5543;51.734;8.744;2023-08-31T11:46:59;16.00;99.90
10980;DHT22;5543;51.734;8.744;2023-08-31T11:49:28;15.60;99.90
10980;DHT22;5543;51.734;8.744;2023-08-31T11:51:56;15.30;99.90
10980;DHT22;5543;51.734;8.744;2023-08-31T11:54:25;15.20;99.90
10980;DHT22;5543;51.734;8.744;2023-08-31T11:56:54;15.30;99.90
10980;DHT22;5543;51.734;8.744;2023-08-31T11:59:23;15.50;99.90
10980;DHT22;5543;51.734;8.744;2023-08-31T12:01:53;15.80;99.90
10980;DHT22;5543;51.734;8.744;2023-08-31T12:04:25;16.00;99.90
10980;DHT22;5543;51.734;8.744;2023-08-31T12:07:01;16.40;99.90
10980;DHT22;5543;51.734;8.744;2023-08-31T12:09:31;16.60;99.90
10980;DHT22;5543;51.734;8.744;2023-08-31T12:11:59;16.70;99.90
10980;DHT22;5543;51.734;8.744;2023-08-31T12:14:30;16.80;99.90
10980;DHT22;5543;51.734;8.744;2023-08-31T12:17:04;16.90;99.90
10980;DHT22;5543;51.734;8.744;2023-08-31T12:19:35;17.10;99.90
10980;DHT22;5543;51.734;8.744;2023-08-31T12:22:07;17.20;99.90
10980;DHT22;5543;51.734;8.744;2023-08-31T12:24:40;17.30;99.90
10980;DHT22;5543;51.734;8.744;2023-08-31T12:27:09;17.40;99.90
10980;DHT22;5543;51.734;8.744;2023-08-31T12:29:37;17.50;99.90
10980;DHT22;5543;51.734;8.744;2023-08-31T12:32:07;17.50;99.90
10980;DHT22;5543;51.734;8.744;2023-08-31T12:34:35;17.50;99.90
10980;DHT22;5543;51.734;8.744;2023-08-31T12:37:03;17.50;99.90
10980;DHT22;5543;51.734;8.744;2023-08-31T12:39:33;17.70;99.90
10980;DHT22;5543;51.734;8.744;2023-08-31T12:42:03;17.90;99.90
10980;DHT22;5543;51.734;8.744;2023-08-31T12:44:48;17.80;99.90
10980;DHT22;5543;51.734;8.744;2023-08-31T12:47:18;17.80;99.90
10980;DHT22;5543;51.734;8.744;2023-08-31T12:49:46;17.80;99.90
10980;DHT22;5543;51.734;8.744;2023-08-31T12:52:15;17.80;99.90
10980;DHT22;5543;51.734;8.744;2023-08-31T12:54:43;17.70;99.90
10980;DHT22;5543;51.734;8.744;2023-08-31T12:57:16;17.70;99.90
10980;DHT22;5543;51.734;8.744;2023-08-31T12:59:44;17.60;99.90
10980;DHT22;5543;51.734;8.744;2023-08-31T13:02:15;17.50;99.90
10980;DHT22;5543;51.734;8.744;2023-08-31T13:04:44;17.40;99.90
10980;DHT22;5543;51.734;8.744;2023-08-31T13:07:12;17.40;99.90
10980;DHT22;5543;51.734;8.744;2023-08-31T13:09:40;17.50;99.90
10980;DHT22;5543;51.734;8.744;2023-08-31T13:12:09;17.70;99.90
10980;DHT22;5543;51.734;8.744;2023-08-31T13:14:37;18.00;99.90
10980;DHT22;5543;51.734;8.744;2023-08-31T13:17:05;18.10;99.90
10980;DHT22;5543;51.734;8.744;2023-08-31T13:19:34;18.30;99.90
10980;DHT22;5543;51.734;8.744;2023-08-31T13:22:03;18.40;99.90
10980;DHT22;5543;51.734;8.744;2023-08-31T13:24:32;18.50;99.90
10980;DHT22;5543;51.734;8.744;2023-08-31T13:27:00;18.50;99.90
10980;DHT22;5543;51.734;8.744;2023-08-31T13:29:30;18.60;99.90
10980;DHT22;5543;51.734;8.744;2023-08-31T13:31:58;18.70;99.90
10980;DHT22;5543;51.734;8.744;2023-08-31T13:34:27;18.60;99.90
10980;DHT22;5543;51.734;8.744;2023-08-31T13:36:56;18.60;99.90
10980;DHT22;5543;51.734;8.744;2023-08-31T13:39:25;18.70;99.90
10980;DHT22;5543;51.734;8.744;2023-08-31T13:41:54;18.80;99.90
10980;DHT22;5543;51.734;8.744;2023-08-31T13:44:22;18.80;99.90
10980;DHT22;5543;51.734;8.744;2023-08-31T13:46:50;18.90;99.90
10980;DHT22;5543;51.734;8.744;2023-08-31T13:49:18;18.90;99.90
10980;DHT22;5543;51.734;8.744;2023-08-31T13:51:47;19.00;99.90
10980;DHT22;5543;51.734;8.744;2023-08-31T13:54:15;19.00;99.90
10980;DHT22;5543;51.734;8.744;2023-08-31T13:56:44;19.00;99.90
10980;DHT22;5543;51.734;8.744;2023-08-31T13:59:12;19.00;99.90
10980;DHT22;5543;51.734;8.744;2023-08-31T14:01:41;19.00;99.90
10980;DHT22;5543;51.734;8.744;2023-08-31T14:04:09;19.10;99.90
10980;DHT22;5543;51.734;8.744;2023-08-31T14:06:37;19.10;99.90
10980;DHT22;5543;51.734;8.744;2023-08-31T14:09:07;19.30;99.90
10980;DHT22;5543;51.734;8.744;2023-08-31T14:11:35;19.40;99.90
10980;DHT22;5543;51.734;8.744;2023-08-31T14:14:06;19.40;99.90
10980;DHT22;5543;51.734;8.744;2023-08-31T14:16:37;19.20;99.90
10980;DHT22;5543;51.734;8.744;2023-08-31T14:19:05;19.00;99.90
10980;DHT22;5543;51.734;8.744;2023-08-31T14:21:34;18.80;99.90
10980;DHT22;5543;51.734;8.744;2023-08-31T14:24:02;18.60;99.90
10980;DHT22;5543;51.734;8.744;2023-08-31T14:26:31;18.30;99.90
10980;DHT22;5543;51.734;8.744;2023-08-31T14:28:59;18.20;99.90
10980;DHT22;5543;51.734;8.744;2023-08-31T14:31:29;18.00;99.90
10980;DHT22;5543;51.734;8.744;2023-08-31T14:33:57;17.70;99.90
10980;DHT22;5543;51.734;8.744;2023-08-31T14:36:25;17.20;99.90
10980;DHT22;5543;51.734;8.744;2023-08-31T14:38:54;16.70;99.90
10980;DHT22;5543;51.734;8.744;2023-08-31T14:41:22;16.10;99.90
10980;DHT22;5543;51.734;8.744;2023-08-31T14:43:50;15.70;99.90
10980;DHT22;5543;51.734;8.744;2023-08-31T14:46:18;15.40;99.90
10980;DHT22;5543;51.734;8.744;2023-08-31T14:48:48;15.00;99.90
10980;DHT22;5543;51.734;8.744;2023-08-31T14:51:16;14.60;99.90
10980;DHT22;5543;51.734;8.744;2023-08-31T14:53:44;14.30;99.90
10980;DHT22;5543;51.734;8.744;2023-08-31T14:56:12;14.20;99.90
10980;DHT22;5543;51.734;8.744;2023-08-31T14:58:41;14.00;99.90
10980;DHT22;5543;51.734;8.744;2023-08-31T15:01:09;13.80;99.90
10980;DHT22;5543;51.734;8.744;2023-08-31T15:03:37;13.80;99.90
10980;DHT22;5543;51.734;8.744;2023-08-31T15:06:07;13.70;99.90
10980;DHT22;5543;51.734;8.744;2023-08-31T15:08:37;13.60;99.90
10980;DHT22;5543;51.734;8.744;2023-08-31T15:11:06;13.60;99.90
10980;DHT22;5543;51.734;8.744;2023-08-31T15:13:34;13.70;99.90
10980;DHT22;5543;51.734;8.744;2023-08-31T15:16:02;13.60;99.90
10980;DHT22;5543;51.734;8.744;2023-08-31T15:18:31;13.60;99.90
10980;DHT22;5543;51.734;8.744;2023-08-31T15:20:59;13.60;99.90
10980;DHT22;5543;51.734;8.744;2023-08-31T15:23:29;13.50;99.90
10980;DHT22;5543;51.734;8.744;2023-08-31T15:26:01;13.40;99.90
10980;DHT22;5543;51.734;8.744;2023-08-31T15:28:30;13.40;99.90
10980;DHT22;5543;51.734;8.744;2023-08-31T15:30:58;13.40;99.90
10980;DHT22;5543;51.734;8.744;2023-08-31T15:33:26;13.40;99.90
10980;DHT22;5543;51.734;8.744;2023-08-31T15:36:02;14.20;99.90
10980;DHT22;5543;51.734;8.744;2023-08-31T15:38:34;14.30;99.90
10980;DHT22;5543;51.734;8.744;2023-08-31T15:41:04;13.70;99.90
10980;DHT22;5543;51.734;8.744;2023-08-31T15:43:33;13.80;99.90
10980;DHT22;5543;51.734;8.744;2023-08-31T15:46:03;13.90;99.90
10980;DHT22;5543;51.734;8.744;2023-08-31T15:48:31;13.90;99.90
10980;DHT22;5543;51.734;8.744;2023-08-31T15:50:59;13.90;99.90
10980;DHT22;5543;51.734;8.744;2023-08-31T15:53:28;13.90;99.90
10980;DHT22;5543;51.734;8.744;2023-08-31T15:55:58;13.90;99.90
10980;DHT22;5543;51.734;8.744;2023-08-31T15:58:26;13.90;99.90